Time;durP1;ratioP1;P1;durP2;ratioP2;P2;SDS_P1;SDS_P2;PMS_P1;PMS_P2;Temp;Humidity;BMP_temperature;BMP_pressure;BME280_temperature;BME280_humidity;BME280_pressure;Samples;Min_cycle;Max_cycle;Signal;HPM_P1;HPM_P2
2022/12/05 00:00:16;;;;;;;7.50;3.78;;;;;;;2.35;83.25;92417.78;2068222;69;20176;-73
2022/12/05 00:02:42;;;;;;;10.13;4.05;;;;;;;2.40;83.23;92413.31;2071507;69;20148;-72
2022/12/05 00:05:10;;;;;;;6.38;3.38;;;;;;;2.41;83.14;92414.78;2071393;69;20159;-73
2022/12/05 00:07:36;;;;;;;7.10;3.85;;;;;;;2.43;82.82;92424.03;2071417;69;20158;-72
2022/12/05 00:10:03;;;;;;;6.80;3.92;;;;;;;2.25;83.55;92423.22;2071377;69;20687;-72
2022/12/05 00:12:29;;;;;;;6.68;3.67;;;;;;;2.24;83.01;92407.84;2071539;69;20267;-72
2022/12/05 00:14:54;;;;;;;6.70;3.83;;;;;;;2.30;83.32;92399.31;2071391;69;20132;-73
2022/12/05 00:17:20;;;;;;;7.13;3.88;;;;;;;2.13;83.89;92424.94;2071320;69;20217;-74
2022/12/05 00:19:45;;;;;;;7.32;3.75;;;;;;;2.08;84.13;92442.56;2067934;69;20468;-75
2022/12/05 00:22:11;;;;;;;7.88;4.32;;;;;;;2.17;83.23;92441.22;2071488;69;20713;-73
2022/12/05 00:24:37;;;;;;;7.05;3.78;;;;;;;2.23;82.76;92416.75;2071254;69;20186;-75
2022/12/05 00:27:06;;;;;;;8.98;4.10;;;;;;;2.27;83.89;92423.38;2071265;69;20222;-73
2022/12/05 00:29:31;;;;;;;8.82;3.70;;;;;;;2.35;82.99;92431.69;2067993;69;20172;-76
2022/12/05 00:31:57;;;;;;;7.00;3.50;;;;;;;2.31;83.98;92425.03;2071267;69;20574;-72
2022/12/05 00:34:23;;;;;;;5.07;2.08;;;;;;;2.44;84.07;92419.22;2071384;69;20275;-77
2022/12/05 00:36:49;;;;;;;3.63;1.98;;;;;;;2.53;84.30;92419.34;2071584;69;20146;-72
2022/12/05 00:39:16;;;;;;;4.57;2.60;;;;;;;2.32;86.08;92418.19;2071291;69;20211;-72
2022/12/05 00:41:42;;;;;;;7.32;3.70;;;;;;;2.24;85.81;92418.94;2071510;69;20269;-72
2022/12/05 00:44:10;;;;;;;6.00;3.35;;;;;;;2.37;85.07;92431.09;2071474;69;20214;-73
2022/12/05 00:46:36;;;;;;;14.63;9.60;;;;;;;2.41;84.81;92423.84;2071268;69;20314;-73
2022/12/05 00:49:04;;;;;;;9.63;5.05;;;;;;;2.52;86.33;92419.88;2071144;69;20624;-79
2022/12/05 00:51:37;;;;;;;3.92;2.45;;;;;;;2.64;85.50;92417.41;2071287;69;20163;-74
2022/12/05 00:54:06;;;;;;;4.03;2.55;;;;;;;2.74;85.44;92432.16;2071354;69;20633;-73
2022/12/05 00:56:33;;;;;;;4.20;2.65;;;;;;;2.79;83.46;92431.97;2071532;69;20210;-74
2022/12/05 00:58:59;;;;;;;4.40;2.70;;;;;;;2.49;85.20;92427.34;2071394;69;20156;-77
2022/12/05 01:01:31;;;;;;;7.05;3.40;;;;;;;2.18;85.51;92437.88;2071267;69;20623;-77
2022/12/05 01:03:58;;;;;;;49.93;33.37;;;;;;;2.28;85.72;92449.13;2071217;69;20331;-76
2022/12/05 01:06:25;;;;;;;40.90;25.55;;;;;;;2.35;85.68;92433.72;2071293;69;20164;-77
2022/12/05 01:08:53;;;;;;;19.63;12.68;;;;;;;2.45;84.95;92431.81;2071260;69;20152;-77
2022/12/05 01:11:19;;;;;;;7.57;5.00;;;;;;;2.57;84.35;92432.84;2071304;69;20211;-74
2022/12/05 01:13:45;;;;;;;8.32;4.72;;;;;;;2.57;84.91;92432.84;2071190;69;20143;-77
2022/12/05 01:16:32;;;;;;;4.72;3.38;;;;;;;2.65;85.45;92438.34;2071428;69;20638;-73
2022/12/05 01:18:59;;;;;;;6.35;3.03;;;;;;;2.62;84.57;92436.72;2070885;69;20151;-74
2022/12/05 01:21:25;;;;;;;10.63;7.30;;;;;;;2.32;85.73;92446.69;2071253;69;20160;-74
2022/12/05 01:23:51;;;;;;;8.80;4.70;;;;;;;2.44;85.24;92447.75;2071274;69;20231;-73
2022/12/05 01:26:20;;;;;;;5.97;3.53;;;;;;;2.38;85.40;92449.25;2071258;69;20144;-74
2022/12/05 01:28:46;;;;;;;14.90;6.53;;;;;;;2.37;85.28;92453.34;2071211;69;20175;-72
2022/12/05 01:31:16;;;;;;;15.57;5.70;;;;;;;2.55;85.00;92447.28;2071296;69;20160;-78
2022/12/05 01:33:49;;;;;;;7.72;4.53;;;;;;;2.69;84.44;92449.81;2071117;69;20736;-73
2022/12/05 01:36:17;;;;;;;4.82;2.55;;;;;;;2.67;84.56;92446.88;2071153;69;20213;-75
2022/12/05 01:38:43;;;;;;;5.47;3.35;;;;;;;2.50;84.81;92453.06;2071203;69;20140;-73
2022/12/05 01:41:20;;;;;;;6.32;3.88;;;;;;;2.67;84.33;92441.31;2071062;69;20140;-75
2022/12/05 01:44:24;;;;;;;9.23;4.68;;;;;;;2.37;84.77;92454.06;2067725;69;20144;-73
2022/12/05 01:46:51;;;;;;;10.02;6.10;;;;;;;2.52;85.06;92462.34;2070967;69;20179;-77
2022/12/05 01:49:38;;;;;;;7.15;5.20;;;;;;;2.55;85.20;92454.91;2070969;69;20137;-77
2022/12/05 01:52:12;;;;;;;10.13;5.47;;;;;;;2.59;83.81;92451.72;2071409;69;20144;-75
2022/12/05 01:54:38;;;;;;;10.73;5.95;;;;;;;2.49;84.60;92444.00;2071127;69;20172;-74
2022/12/05 01:57:09;;;;;;;12.75;6.43;;;;;;;2.45;84.45;92452.00;2071073;69;20214;-76
2022/12/05 01:59:38;;;;;;;7.93;4.75;;;;;;;2.50;84.02;92456.59;2071086;69;20168;-76
2022/12/05 02:02:05;;;;;;;6.43;3.83;;;;;;;2.54;83.59;92462.50;2071205;69;20203;-78
2022/12/05 02:04:37;;;;;;;9.73;4.20;;;;;;;2.74;83.60;92471.81;2071117;69;20147;-78
2022/12/05 02:07:03;;;;;;;10.27;4.03;;;;;;;2.78;83.49;92474.22;2071595;69;20247;-75
2022/12/05 02:09:28;;;;;;;9.98;5.43;;;;;;;2.38;84.04;92477.03;2071541;69;20206;-73
2022/12/05 02:12:00;;;;;;;8.48;4.20;;;;;;;2.52;84.42;92483.81;2071592;69;20523;-73
2022/12/05 02:14:44;;;;;;;7.00;4.00;;;;;;;2.66;83.78;92489.88;2071588;69;20176;-74
2022/12/05 02:17:55;;;;;;;8.43;3.80;;;;;;;2.72;83.40;92480.00;2071465;69;20148;-73
2022/12/05 02:20:53;;;;;;;7.97;4.43;;;;;;;2.60;84.13;92478.94;2057149;69;20280;-74
2022/12/05 02:23:45;;;;;;;7.28;4.07;;;;;;;2.71;84.28;92463.91;2057416;69;20137;-72
2022/12/05 02:26:17;;;;;;;7.22;3.45;;;;;;;2.76;83.91;92463.66;2069617;69;20304;-73
2022/12/05 02:28:45;;;;;;;5.43;3.30;;;;;;;2.76;84.39;92462.94;2068709;69;20589;-73
2022/12/05 02:31:36;;;;;;;4.72;3.20;;;;;;;2.63;85.04;92457.63;2064666;69;20156;-73
2022/12/05 02:34:21;;;;;;;4.25;2.80;;;;;;;2.67;84.42;92460.75;2064752;69;20163;-73
2022/12/05 02:37:02;;;;;;;6.82;3.00;;;;;;;2.84;83.67;92462.88;2064997;69;20152;-72
2022/12/05 02:40:09;;;;;;;5.88;2.92;;;;;;;2.71;84.16;92459.06;2065051;69;20527;-72
2022/12/05 02:43:09;;;;;;;5.53;2.65;;;;;;;2.79;84.10;92468.09;2062673;69;20141;-72
2022/12/05 02:45:37;;;;;;;6.82;2.88;;;;;;;2.68;84.45;92465.00;2063973;69;20156;-74
2022/12/05 02:48:05;;;;;;;7.53;2.97;;;;;;;2.54;85.43;92461.75;2061499;69;20184;-73
2022/12/05 02:50:35;;;;;;;5.60;3.08;;;;;;;2.59;84.35;92448.94;2065097;69;20148;-72
2022/12/05 02:53:08;;;;;;;2.97;2.50;;;;;;;2.53;84.93;92458.25;2064975;69;20137;-72
2022/12/05 02:55:34;;;;;;;5.88;2.55;;;;;;;2.73;85.47;92461.28;2064907;69;20145;-73
2022/12/05 02:58:06;;;;;;;3.05;2.30;;;;;;;2.87;84.37;92454.13;2064981;69;20141;-73
2022/12/05 03:00:34;;;;;;;4.18;2.20;;;;;;;2.84;83.60;92451.75;2064865;69;20195;-72
2022/12/05 03:03:00;;;;;;;4.88;2.22;;;;;;;2.92;84.09;92449.66;2064243;69;20137;-72
2022/12/05 03:05:56;;;;;;;2.38;1.60;;;;;;;2.97;85.04;92459.81;2064777;69;20160;-72
2022/12/05 03:08:27;;;;;;;3.55;1.90;;;;;;;2.99;83.93;92454.44;2064879;69;20612;-72
2022/12/05 03:10:55;;;;;;;2.40;1.90;;;;;;;2.95;83.59;92468.72;2064941;69;20635;-73
2022/12/05 03:13:25;;;;;;;6.72;2.15;;;;;;;2.86;83.63;92465.81;2064949;69;20479;-74
2022/12/05 03:15:58;;;;;;;3.45;2.00;;;;;;;2.77;83.68;92469.97;2064534;69;20133;-73
2022/12/05 03:18:31;;;;;;;6.93;3.38;;;;;;;2.76;84.43;92472.00;2064407;69;20137;-73
2022/12/05 03:21:02;;;;;;;3.88;2.40;;;;;;;2.77;83.40;92473.47;2064831;69;20214;-72
2022/12/05 03:23:38;;;;;;;3.35;2.45;;;;;;;2.72;83.69;92459.81;2064988;69;20168;-73
2022/12/05 03:26:10;;;;;;;3.33;2.10;;;;;;;2.74;83.51;92473.88;2064314;69;20295;-72
2022/12/05 03:28:49;;;;;;;4.72;2.47;;;;;;;2.47;84.01;92477.16;2065296;69;20160;-73
2022/12/05 03:31:21;;;;;;;3.90;2.30;;;;;;;2.57;84.34;92466.19;2068223;69;20256;-73
2022/12/05 03:33:53;;;;;;;2.67;1.92;;;;;;;2.58;84.42;92478.06;2067970;69;20285;-72
2022/12/05 03:36:27;;;;;;;3.38;2.20;;;;;;;2.60;84.39;92481.00;2068002;69;20156;-73
2022/12/05 03:39:01;;;;;;;3.67;1.42;;;;;;;2.69;84.07;92470.00;2068171;69;20238;-73
2022/12/05 03:41:36;;;;;;;2.00;1.30;;;;;;;2.68;83.13;92465.75;2068374;69;20564;-73
2022/12/05 03:44:05;;;;;;;2.58;1.30;;;;;;;2.29;86.02;92468.00;2067954;69;20144;-73
2022/12/05 03:46:36;;;;;;;3.60;1.52;;;;;;;2.41;86.66;92473.88;2067515;69;20184;-72
2022/12/05 03:49:18;;;;;;;2.28;1.85;;;;;;;2.49;85.18;92476.63;2067282;69;20615;-73
2022/12/05 03:51:52;;;;;;;2.80;1.70;;;;;;;2.53;84.69;92474.19;2068222;69;20140;-72
2022/12/05 03:54:23;;;;;;;2.75;1.73;;;;;;;2.57;84.84;92474.53;2067863;69;20176;-73
2022/12/05 03:56:58;;;;;;;5.38;1.98;;;;;;;2.52;84.44;92459.56;2068058;69;20526;-72
2022/12/05 03:59:45;;;;;;;2.60;1.52;;;;;;;2.68;83.48;92457.41;2068186;69;20137;-73
2022/12/05 04:02:22;;;;;;;2.22;1.65;;;;;;;2.10;85.48;92461.41;2068089;69;20755;-72
2022/12/05 04:04:53;;;;;;;4.00;1.60;;;;;;;2.33;86.62;92453.72;2067886;69;20144;-73
2022/12/05 04:07:20;;;;;;;3.03;1.50;;;;;;;2.38;85.07;92461.09;2067512;69;20149;-73
2022/12/05 04:09:55;;;;;;;1.67;1.38;;;;;;;2.51;84.88;92446.94;2067294;69;20588;-72
2022/12/05 04:12:31;;;;;;;3.60;1.38;;;;;;;2.57;85.00;92434.88;2068067;69;20212;-73
2022/12/05 04:15:02;;;;;;;5.60;2.53;;;;;;;2.18;86.66;92446.19;2067867;69;20166;-74
2022/12/05 04:17:39;;;;;;;3.15;2.10;;;;;;;2.34;85.76;92449.66;2067228;69;20163;-73
2022/12/05 04:22:58;;;;;;;7.07;5.05;;;;;;;2.34;85.33;92448.91;2067946;69;20272;-71
2022/12/05 04:25:33;;;;;;;5.35;3.58;;;;;;;2.38;85.03;92449.97;2067920;69;20251;-71
2022/12/05 04:28:29;;;;;;;12.68;7.63;;;;;;;2.35;84.27;92453.16;2068246;69;20159;-72
2022/12/05 04:31:02;;;;;;;10.93;7.20;;;;;;;2.33;83.78;92456.50;2071412;69;20144;-72
2022/12/05 04:33:53;;;;;;;4.68;3.30;;;;;;;2.38;84.64;92461.09;2071310;69;20591;-72
2022/12/05 04:36:41;;;;;;;5.95;4.30;;;;;;;2.42;83.68;92453.09;2071487;69;20642;-72
2022/12/05 04:39:16;;;;;;;5.47;3.67;;;;;;;2.37;84.13;92456.84;2070503;69;20219;-72
2022/12/05 04:41:48;;;;;;;4.50;3.17;;;;;;;2.37;83.21;92451.28;2071227;69;20200;-72
2022/12/05 04:44:19;;;;;;;3.92;2.92;;;;;;;2.27;82.24;92451.16;2071351;69;20590;-72
2022/12/05 04:46:48;;;;;;;6.65;3.55;;;;;;;2.19;83.93;92458.03;2071478;69;20235;-71
2022/12/05 04:49:21;;;;;;;8.93;5.05;;;;;;;2.10;83.87;92456.59;2071290;69;20231;-72
2022/12/05 04:51:51;;;;;;;6.40;4.20;;;;;;;2.16;83.95;92462.69;2067989;69;20507;-73
2022/12/05 04:54:37;;;;;;;7.50;4.32;;;;;;;2.13;83.28;92461.03;2067629;69;20214;-75
2022/12/05 04:57:14;;;;;;;7.45;4.30;;;;;;;2.08;82.86;92464.75;2068451;69;20172;-74
2022/12/05 04:59:39;;;;;;;6.93;4.43;;;;;;;2.11;82.69;92451.78;2071358;69;20144;-73
2022/12/05 05:02:11;;;;;;;7.40;5.47;;;;;;;2.06;82.64;92456.25;2071324;69;20171;-74
2022/12/05 05:04:46;;;;;;;11.68;7.05;;;;;;;2.02;82.23;92461.47;2071366;69;20144;-75
2022/12/05 05:07:16;;;;;;;24.80;11.05;;;;;;;2.06;82.76;92472.91;2071393;69;20148;-72
2022/12/05 05:09:43;;;;;;;164.00;44.40;;;;;;;2.10;82.46;92467.72;2067975;69;20631;-74
2022/12/05 05:12:09;;;;;;;226.00;65.15;;;;;;;2.16;82.82;92465.47;2071266;69;20247;-73
2022/12/05 05:14:34;;;;;;;213.05;60.05;;;;;;;2.19;82.58;92469.88;2071240;69;20131;-72
2022/12/05 05:17:00;;;;;;;176.13;53.45;;;;;;;2.24;82.75;92468.19;2071318;69;20632;-74
2022/12/05 05:19:26;;;;;;;74.13;24.52;;;;;;;2.24;83.56;92466.16;2071245;69;20587;-75
2022/12/05 05:21:52;;;;;;;36.33;14.90;;;;;;;2.38;83.22;92465.91;2071359;69;20144;-75
2022/12/05 05:24:20;;;;;;;30.08;10.50;;;;;;;2.38;82.67;92461.09;2067803;69;20136;-72
2022/12/05 05:26:46;;;;;;;29.65;10.45;;;;;;;2.40;83.00;92468.88;2071261;69;20167;-72
2022/12/05 05:29:13;;;;;;;16.08;7.18;;;;;;;2.43;83.76;92476.06;2071181;69;20156;-72
2022/12/05 05:31:40;;;;;;;37.90;14.98;;;;;;;2.39;82.73;92478.53;2071236;69;20129;-72
2022/12/05 05:34:06;;;;;;;30.90;11.73;;;;;;;2.37;82.96;92476.28;2071223;69;20183;-73
2022/12/05 05:36:31;;;;;;;25.90;10.93;;;;;;;2.53;83.23;92491.59;2070530;69;20148;-79
2022/12/05 05:39:00;;;;;;;33.08;13.52;;;;;;;2.37;83.60;92489.44;2070504;69;20148;-76
2022/12/05 05:41:28;;;;;;;25.38;11.18;;;;;;;2.48;83.68;92486.25;2071302;69;20235;-76
2022/12/05 05:43:54;;;;;;;21.70;10.40;;;;;;;2.50;82.91;92481.59;2071325;69;20540;-78
2022/12/05 05:46:23;;;;;;;18.92;9.88;;;;;;;2.55;83.14;92497.31;2067880;69;20140;-78
2022/12/05 05:48:49;;;;;;;17.60;8.88;;;;;;;2.61;82.60;92488.78;2071133;69;20235;-77
2022/12/05 05:51:16;;;;;;;13.50;7.18;;;;;;;2.60;83.02;92484.50;2070953;69;20232;-77
2022/12/05 05:53:42;;;;;;;14.98;8.38;;;;;;;2.50;83.50;92489.94;2071361;69;20584;-80
2022/12/05 05:56:13;;;;;;;20.73;8.73;;;;;;;2.09;85.19;92484.94;2071268;69;20152;-77
2022/12/05 05:58:39;;;;;;;17.25;8.65;;;;;;;2.22;84.14;92496.56;2071361;69;20581;-78
2022/12/05 06:01:06;;;;;;;18.63;9.18;;;;;;;2.27;83.20;92492.09;2071156;69;20576;-77
2022/12/05 06:03:32;;;;;;;18.58;8.95;;;;;;;2.29;82.83;92497.81;2071308;69;20585;-73
2022/12/05 06:06:05;;;;;;;17.35;7.82;;;;;;;2.13;84.32;92499.19;2071399;69;20160;-73
2022/12/05 06:08:35;;;;;;;21.85;10.30;;;;;;;2.35;83.60;92512.25;2071349;69;20170;-73
2022/12/05 06:11:07;;;;;;;23.02;10.02;;;;;;;2.18;82.90;92510.06;2071537;69;20188;-73
2022/12/05 06:13:34;;;;;;;15.60;7.20;;;;;;;2.24;83.05;92507.81;2071880;69;20254;-77
2022/12/05 06:16:00;;;;;;;17.15;8.48;;;;;;;2.23;83.78;92503.56;2071976;69;20206;-78
2022/12/05 06:18:26;;;;;;;15.27;7.65;;;;;;;2.19;84.46;92510.81;2071161;69;20168;-79
2022/12/05 06:20:55;;;;;;;22.90;10.60;;;;;;;2.10;83.79;92506.59;2071264;69;20180;-77
2022/12/05 06:23:21;;;;;;;18.98;10.80;;;;;;;2.09;84.14;92507.16;2071201;69;20164;-78
2022/12/05 06:25:49;;;;;;;27.70;11.63;;;;;;;2.09;83.76;92512.72;2071272;69;20626;-73
2022/12/05 06:28:16;;;;;;;26.02;12.57;;;;;;;1.96;83.85;92510.88;2071068;69;20148;-73
2022/12/05 06:30:42;;;;;;;25.20;12.85;;;;;;;2.03;83.52;92512.91;2071446;69;20353;-76
2022/12/05 06:33:09;;;;;;;26.23;12.88;;;;;;;1.83;83.45;92517.41;2068221;69;20152;-77
2022/12/05 06:35:35;;;;;;;19.10;10.13;;;;;;;1.91;83.76;92520.16;2071656;69;20608;-78
2022/12/05 06:38:01;;;;;;;22.17;10.95;;;;;;;1.94;84.11;92519.06;2071639;69;20164;-77
2022/12/05 06:40:26;;;;;;;23.98;10.25;;;;;;;1.97;83.82;92520.69;2068416;69;20282;-78
2022/12/05 06:42:52;;;;;;;19.20;10.20;;;;;;;2.02;83.96;92517.72;2071668;69;20153;-74
2022/12/05 06:45:18;;;;;;;22.70;11.85;;;;;;;1.94;84.71;92525.34;2071575;69;20187;-74
2022/12/05 06:47:44;;;;;;;21.45;10.30;;;;;;;2.03;84.53;92535.88;2068414;69;20155;-81
2022/12/05 06:50:10;;;;;;;19.15;10.52;;;;;;;2.07;84.38;92529.19;2068298;69;20143;-77
2022/12/05 06:52:35;;;;;;;24.83;10.52;;;;;;;1.96;83.90;92533.09;2071877;69;20148;-76
2022/12/05 06:55:01;;;;;;;19.83;9.27;;;;;;;2.03;84.70;92533.09;2068787;69;20128;-72
2022/12/05 06:57:30;;;;;;;17.88;9.48;;;;;;;2.04;84.13;92531.06;2071774;69;20136;-75
2022/12/05 07:01:37;;;;;;;21.38;10.73;;;;;;;1.85;85.85;92534.25;2068338;69;20564;-74
2022/12/05 07:02:42;;;;;;;21.95;11.43;;;;;;;2.08;85.39;92541.78;2071665;69;20152;-73
2022/12/05 07:05:08;;;;;;;54.40;24.60;;;;;;;2.14;84.79;92543.03;2071668;69;20259;-74
2022/12/05 07:07:34;;;;;;;46.00;22.58;;;;;;;2.10;84.00;92547.50;2071654;69;20564;-73
2022/12/05 07:10:00;;;;;;;31.77;15.57;;;;;;;2.10;83.99;92542.69;2068267;69;20168;-72
2022/12/05 07:12:26;;;;;;;35.58;16.40;;;;;;;1.87;84.21;92553.84;2071603;69;20251;-72
2022/12/05 07:14:51;;;;;;;113.30;48.72;;;;;;;1.94;85.14;92557.91;2071570;69;20147;-72
2022/12/05 07:17:18;;;;;;;44.83;19.98;;;;;;;1.88;84.62;92558.13;2071590;69;20136;-72
2022/12/05 07:19:48;;;;;;;42.90;20.80;;;;;;;1.98;84.54;92564.56;2068083;69;20172;-72
2022/12/05 07:22:14;;;;;;;42.72;18.83;;;;;;;2.04;84.22;92562.31;2068270;69;20176;-73
2022/12/05 07:24:39;;;;;;;44.20;20.27;;;;;;;2.03;83.76;92565.69;2068350;69;20217;-74
2022/12/05 07:27:05;;;;;;;48.22;21.52;;;;;;;2.06;83.62;92564.53;2071533;69;20140;-73
2022/12/05 07:29:32;;;;;;;74.00;33.05;;;;;;;2.10;83.56;92569.72;2071419;69;20703;-75
2022/12/05 07:31:57;;;;;;;76.10;36.35;;;;;;;2.08;84.02;92567.50;2071596;69;20128;-74
2022/12/05 07:34:23;;;;;;;81.03;38.88;;;;;;;2.10;84.50;92572.50;2071496;69;20222;-73
2022/12/05 07:36:49;;;;;;;76.45;35.83;;;;;;;2.15;83.68;92569.50;2071612;69;20215;-76
2022/12/05 07:39:15;;;;;;;55.13;24.83;;;;;;;2.14;84.08;92581.19;2071865;69;20164;-77
2022/12/05 07:41:41;;;;;;;56.92;25.65;;;;;;;2.15;84.14;92579.88;2071683;69;20549;-76
2022/12/05 07:44:10;;;;;;;60.20;26.95;;;;;;;2.23;83.81;92580.63;2068196;69;20148;-76
2022/12/05 07:46:36;;;;;;;76.85;35.85;;;;;;;2.17;83.90;92575.25;2071649;69;20159;-77
2022/12/05 07:49:02;;;;;;;64.55;28.92;;;;;;;2.25;84.08;92592.66;2071482;69;20144;-77
2022/12/05 07:51:28;;;;;;;47.15;22.63;;;;;;;2.24;83.99;92588.38;2071542;69;20180;-75
2022/12/05 07:53:53;;;;;;;43.97;22.27;;;;;;;2.35;83.75;92592.81;2071490;69;20490;-76
2022/12/05 07:56:20;;;;;;;69.30;33.05;;;;;;;2.13;84.17;92591.56;2071538;69;20225;-75
2022/12/05 07:58:49;;;;;;;72.97;35.85;;;;;;;2.19;84.45;92594.88;2068180;69;20152;-75
2022/12/05 08:01:16;;;;;;;73.07;35.83;;;;;;;2.21;84.35;92591.56;2071536;69;20152;-75
2022/12/05 08:03:43;;;;;;;68.22;34.55;;;;;;;2.20;84.45;92585.25;2071193;69;20179;-75
2022/12/05 08:06:13;;;;;;;75.53;35.40;;;;;;;2.31;84.52;92591.72;2071309;69;20223;-76
2022/12/05 08:08:39;;;;;;;66.60;34.70;;;;;;;2.33;84.29;92589.09;2071461;69;20250;-76
2022/12/05 08:11:14;;;;;;;67.28;31.30;;;;;;;2.43;84.24;92596.31;2071477;69;20158;-75
2022/12/05 08:13:40;;;;;;;51.08;26.88;;;;;;;2.51;84.04;92604.59;2071476;69;20601;-75
2022/12/05 08:16:09;;;;;;;42.75;22.60;;;;;;;2.52;84.00;92601.28;2067772;69;20626;-75
2022/12/05 08:18:35;;;;;;;36.47;21.15;;;;;;;2.59;83.58;92602.53;2071262;69;20496;-75
2022/12/05 08:21:10;;;;;;;39.55;20.73;;;;;;;2.66;84.32;92604.56;2071461;69;20164;-75
2022/12/05 08:23:38;;;;;;;48.00;27.08;;;;;;;2.85;84.43;92606.16;2071481;69;20159;-75
2022/12/05 08:26:07;;;;;;;52.08;26.58;;;;;;;2.93;84.69;92610.38;2068146;69;20583;-75
2022/12/05 08:28:33;;;;;;;41.88;23.17;;;;;;;3.06;84.59;92615.66;2071452;69;20179;-75
2022/12/05 08:31:16;;;;;;;47.78;25.52;;;;;;;2.97;84.32;92609.97;2071444;69;20171;-75
2022/12/05 08:33:42;;;;;;;42.63;23.85;;;;;;;3.17;84.32;92613.78;2071441;69;20172;-75
2022/12/05 08:36:11;;;;;;;45.25;23.13;;;;;;;3.46;84.31;92622.50;2071314;69;20151;-75
2022/12/05 08:38:37;;;;;;;49.67;25.95;;;;;;;3.80;85.73;92625.41;2071404;69;20157;-75
2022/12/05 08:41:05;;;;;;;50.95;26.60;;;;;;;3.97;84.18;92629.53;2071461;69;20482;-75
2022/12/05 08:43:32;;;;;;;48.22;25.13;;;;;;;4.05;82.97;92619.81;2071328;69;20531;-75
2022/12/05 08:45:58;;;;;;;39.90;22.75;;;;;;;4.31;83.00;92626.09;2071419;69;20152;-75
2022/12/05 08:48:26;;;;;;;37.03;21.60;;;;;;;4.56;82.39;92626.75;2071322;69;20565;-75
2022/12/05 08:50:52;;;;;;;41.72;20.52;;;;;;;4.84;83.86;92625.50;2071392;69;20153;-75
2022/12/05 08:53:18;;;;;;;40.25;21.48;;;;;;;4.71;83.28;92627.88;2071400;69;20163;-75
2022/12/05 08:55:44;;;;;;;36.13;20.60;;;;;;;5.03;82.53;92624.16;2071280;69;20253;-75
2022/12/05 08:58:11;;;;;;;31.40;19.05;;;;;;;5.58;83.88;92625.66;2071431;69;20573;-76
2022/12/05 09:00:37;;;;;;;30.85;17.67;;;;;;;5.69;80.29;92621.63;2067992;69;20531;-75
2022/12/05 09:03:03;;;;;;;26.25;15.93;;;;;;;5.89;79.60;92628.00;2071214;69;20257;-76
2022/12/05 09:05:29;;;;;;;24.70;15.15;;;;;;;6.14;80.78;92605.47;2071305;69;20166;-76
2022/12/05 09:07:55;;;;;;;23.52;14.75;;;;;;;6.30;78.29;92627.00;2071319;69;20147;-76
2022/12/05 09:10:20;;;;;;;25.02;13.45;;;;;;;6.77;78.28;92627.63;2068032;69;20152;-75
2022/12/05 09:12:46;;;;;;;21.83;12.88;;;;;;;6.72;78.17;92631.47;2071311;69;20152;-76
2022/12/05 09:15:12;;;;;;;20.50;12.38;;;;;;;7.05;76.20;92626.16;2071331;69;20232;-76
2022/12/05 09:17:38;;;;;;;18.65;11.93;;;;;;;6.91;74.05;92624.41;2071294;69;20180;-75
2022/12/05 09:20:05;;;;;;;17.05;10.50;;;;;;;7.33;75.39;92630.28;2071290;69;20159;-75
2022/12/05 09:22:32;;;;;;;18.77;10.63;;;;;;;7.55;73.84;92633.16;2071377;69;20152;-76
2022/12/05 09:24:58;;;;;;;20.05;11.30;;;;;;;7.54;73.13;92632.44;2071359;69;20140;-76
2022/12/05 09:27:23;;;;;;;24.63;12.85;;;;;;;7.19;72.63;92634.84;2071367;69;20756;-76
2022/12/05 09:29:49;;;;;;;51.40;26.52;;;;;;;7.44;73.08;92631.00;2071290;69;20188;-76
2022/12/05 09:32:15;;;;;;;34.47;17.75;;;;;;;8.03;71.60;92646.31;2071326;69;20167;-76
2022/12/05 09:34:40;;;;;;;35.08;19.40;;;;;;;8.42;70.90;92643.34;2067912;69;20144;-75
2022/12/05 09:37:06;;;;;;;29.73;16.88;;;;;;;8.53;69.57;92648.34;2071299;69;20171;-76
2022/12/05 09:39:33;;;;;;;36.63;21.15;;;;;;;8.06;68.32;92643.06;2071348;69;20202;-76
2022/12/05 09:42:08;;;;;;;33.08;16.85;;;;;;;7.80;68.92;92644.03;2068079;69;20677;-77
2022/12/05 09:44:42;;;;;;;84.90;38.05;;;;;;;7.45;69.70;92649.28;2071340;69;20276;-78
2022/12/05 09:47:26;;;;;;;55.88;26.67;;;;;;;8.60;69.56;92650.19;2071225;69;20232;-76
2022/12/05 09:50:01;;;;;;;24.85;12.65;;;;;;;9.15;67.47;92651.72;2071172;69;20271;-78
2022/12/05 09:52:32;;;;;;;22.88;13.57;;;;;;;9.41;66.53;92651.97;2071311;69;20185;-77
2022/12/05 09:55:09;;;;;;;24.67;14.48;;;;;;;9.38;65.16;92644.75;2071516;69;20148;-76
2022/12/05 09:57:39;;;;;;;21.77;13.63;;;;;;;9.43;62.89;92647.19;2067759;69;20600;-78
2022/12/05 10:00:08;;;;;;;10.85;5.63;;;;;;;9.45;63.64;92651.50;2071398;69;20263;-77
2022/12/05 10:02:52;;;;;;;7.18;4.22;;;;;;;9.78;63.92;92646.59;2071389;69;20206;-77
2022/12/05 10:05:26;;;;;;;16.48;8.77;;;;;;;10.25;61.10;92641.03;2071080;69;20128;-78
2022/12/05 10:07:52;;;;;;;12.15;8.15;;;;;;;11.22;60.25;92642.50;2067851;69;20146;-77
2022/12/05 10:10:48;;;;;;;14.45;7.07;;;;;;;11.75;60.59;92644.75;2071207;69;20148;-78
2022/12/05 10:13:39;;;;;;;8.48;5.03;;;;;;;9.77;60.61;92644.38;2071281;69;20140;-78
2022/12/05 10:16:17;;;;;;;9.77;4.78;;;;;;;10.25;59.67;92645.94;2071240;69;20632;-76
2022/12/05 10:18:52;;;;;;;6.85;4.68;;;;;;;11.37;59.26;92641.25;2071093;69;20148;-75
2022/12/05 10:21:21;;;;;;;8.38;4.72;;;;;;;11.30;55.89;92639.44;2071304;69;20140;-75
2022/12/05 10:23:52;;;;;;;7.45;4.68;;;;;;;9.83;59.60;92644.75;2071186;69;20148;-75
2022/12/05 10:26:20;;;;;;;7.78;4.70;;;;;;;9.20;60.38;92647.09;2071283;69;20168;-77
2022/12/05 10:29:14;;;;;;;6.30;4.95;;;;;;;10.61;59.59;92633.34;2071601;69;20140;-77
2022/12/05 10:31:42;;;;;;;8.82;5.30;;;;;;;11.62;55.50;92643.34;2071877;69;20592;-77
2022/12/05 10:34:38;;;;;;;5.90;4.13;;;;;;;10.08;57.24;92647.00;2071659;69;20218;-77
2022/12/05 10:37:21;;;;;;;9.30;5.00;;;;;;;11.19;56.92;92649.41;2071530;69;20158;-76
2022/12/05 10:39:48;;;;;;;7.53;4.82;;;;;;;12.74;52.51;92649.41;2071609;69;20137;-78
2022/12/05 10:42:24;;;;;;;7.32;5.10;;;;;;;12.39;54.14;92644.75;2071636;69;20171;-77
2022/12/05 10:44:56;;;;;;;8.45;5.25;;;;;;;12.44;51.83;92649.25;2071146;69;20171;-78
2022/12/05 10:47:22;;;;;;;8.25;5.32;;;;;;;11.66;52.46;92647.13;2071768;69;20247;-79
2022/12/05 10:49:49;;;;;;;9.05;5.53;;;;;;;9.56;57.88;92640.28;2071670;69;20581;-77
2022/12/05 10:52:15;;;;;;;7.00;5.22;;;;;;;11.58;56.88;92641.03;2071705;69;20164;-78
2022/12/05 10:54:56;;;;;;;9.30;5.35;;;;;;;11.55;55.27;92639.47;2071559;69;20226;-79
2022/12/05 10:57:27;;;;;;;7.90;5.45;;;;;;;12.92;52.53;92650.34;2071590;69;20135;-77
2022/12/05 10:59:53;;;;;;;9.70;5.63;;;;;;;12.61;51.69;92644.47;2071684;69;20190;-77
2022/12/05 11:02:31;;;;;;;8.77;5.45;;;;;;;10.38;55.34;92645.34;2071617;69;20180;-76
2022/12/05 11:04:58;;;;;;;6.97;5.47;;;;;;;10.78;55.55;92638.59;2071453;69;20592;-78
2022/12/05 11:07:29;;;;;;;9.52;5.45;;;;;;;11.48;53.69;92640.47;2068228;69;20488;-76
2022/12/05 11:09:56;;;;;;;8.27;5.47;;;;;;;11.82;53.63;92629.63;2065509;69;20215;-77
2022/12/05 11:12:37;;;;;;;7.60;5.28;;;;;;;11.58;53.95;92629.03;2071598;69;20154;-77
2022/12/05 11:15:23;;;;;;;6.75;5.35;;;;;;;11.62;53.56;92623.63;2071723;69;20207;-78
2022/12/05 11:17:50;;;;;;;9.13;5.40;;;;;;;11.20;55.32;92617.03;2071577;69;20143;-79
2022/12/05 11:20:18;;;;;;;7.63;5.18;;;;;;;11.42;54.28;92628.84;2071580;69;20606;-77
2022/12/05 11:22:46;;;;;;;7.35;5.18;;;;;;;11.39;54.54;92624.44;2071515;69;20290;-76
2022/12/05 11:25:27;;;;;;;6.25;4.93;;;;;;;10.73;55.92;92627.69;2071449;69;20152;-76
2022/12/05 11:27:54;;;;;;;8.25;5.40;;;;;;;9.76;57.68;92632.41;2071508;69;20542;-77
2022/12/05 11:30:23;;;;;;;6.93;4.80;;;;;;;9.55;58.33;92635.28;2071405;69;20148;-75
2022/12/05 11:32:50;;;;;;;6.55;5.00;;;;;;;9.29;59.20;92618.19;2071412;69;20228;-76
2022/12/05 11:35:15;;;;;;;9.75;5.20;;;;;;;9.38;59.71;92625.06;2071432;69;20141;-77
2022/12/05 11:38:00;;;;;;;9.82;5.55;;;;;;;9.28;60.12;92622.34;2071433;69;20485;-74
2022/12/05 11:40:48;;;;;;;7.82;5.32;;;;;;;8.39;62.73;92614.44;2071565;69;20149;-76
2022/12/05 11:43:13;;;;;;;8.55;5.70;;;;;;;8.41;64.04;92620.19;2071516;69;20228;-76
2022/12/05 11:45:57;;;;;;;8.27;5.20;;;;;;;8.37;63.55;92615.03;2071411;69;20156;-75
2022/12/05 11:48:58;;;;;;;7.20;5.60;;;;;;;8.55;63.21;92618.31;2071372;69;20137;-75
2022/12/05 11:51:44;;;;;;;7.35;5.15;;;;;;;7.97;63.54;92609.44;2070275;69;20196;-75
2022/12/05 11:54:29;;;;;;;8.88;5.43;;;;;;;7.86;64.30;92599.59;2068077;69;20183;-75